Time;durP1;ratioP1;P1;durP2;ratioP2;P2;SDS_P1;SDS_P2;PMS_P1;PMS_P2;Temp;Humidity;BMP_temperature;BMP_pressure;BME280_temperature;BME280_humidity;BME280_pressure;Samples;Min_cycle;Max_cycle;Signal;HPM_P1;HPM_P2
2023/03/10 00:00:26;;;;;;;;;;;;;;;19.51;63.80;98829.75;2270852;76;51374;-72
2023/03/10 00:03:27;;;;;;;;;;;;;;;19.50;63.85;98827.59;2288805;77;50569;-72
2023/03/10 00:06:30;;;;;;;;;;;;;;;19.46;63.87;98813.53;2198826;79;52257;-74
2023/03/10 00:09:32;;;;;;;;;;;;;;;19.41;63.98;98818.25;2252102;77;51461;-72
2023/03/10 00:12:34;;;;;;;;;;;;;;;19.37;64.06;98806.38;2255887;77;50537;-73
2023/03/10 00:15:35;;;;;;;;;;;;;;;19.31;64.30;98802.73;2279195;77;51428;-72
2023/03/10 00:18:37;;;;;;;;;;;;;;;19.29;64.46;98794.13;2228016;76;51097;-72
2023/03/10 00:21:38;;;;;;;;;;;;;;;19.28;64.51;98787.65;2273702;77;49875;-72
2023/03/10 00:24:40;;;;;;;;;;;;;;;19.29;64.42;98780.72;2256277;78;50726;-72
2023/03/10 00:27:42;;;;;;;;;;;;;;;19.32;64.43;98788.83;2251172;78;49505;-72
2023/03/10 00:30:43;;;;;;;;;;;;;;;19.34;64.43;98776.82;2249950;78;51294;-72
2023/03/10 00:33:45;;;;;;;;;;;;;;;19.35;64.38;98774.95;2249922;78;50284;-72
2023/03/10 00:36:46;;;;;;;;;;;;;;;19.38;64.37;98762.94;2272578;78;51502;-73
2023/03/10 00:39:51;;;;;;;;;;;;;;;19.39;64.30;98747.12;2250611;78;50638;-72
2023/03/10 00:42:53;;;;;;;;;;;;;;;19.41;64.24;98742.34;2251560;79;51540;-72
2023/03/10 00:45:54;;;;;;;;;;;;;;;19.44;64.21;98735.16;2270439;78;50381;-71
2023/03/10 00:48:56;;;;;;;;;;;;;;;19.45;64.14;98729.58;2256176;78;50343;-73
2023/03/10 00:51:58;;;;;;;;;;;;;;;19.48;64.13;98721.59;2250015;79;50338;-72
2023/03/10 00:54:59;;;;;;;;;;;;;;;19.50;64.09;98712.78;2249912;79;50290;-72
2023/03/10 00:58:01;;;;;;;;;;;;;;;19.55;64.09;98717.73;2237964;79;50627;-72
2023/03/10 01:01:02;;;;;;;;;;;;;;;19.57;63.91;98706.73;2239388;79;50624;-71
2023/03/10 01:04:05;;;;;;;;;;;;;;;19.53;63.93;98697.55;2249992;78;50224;-72
2023/03/10 01:07:06;;;;;;;;;;;;;;;19.51;63.99;98694.28;2237959;79;52386;-72
2023/03/10 01:10:08;;;;;;;;;;;;;;;19.47;64.05;98694.45;2237833;79;51401;-72
2023/03/10 01:13:11;;;;;;;;;;;;;;;19.43;64.14;98681.25;2249907;78;50233;-72
2023/03/10 01:16:12;;;;;;;;;;;;;;;19.38;64.26;98678.45;2249741;79;51388;-72
2023/03/10 01:19:14;;;;;;;;;;;;;;;19.32;64.42;98664.13;2260308;78;52296;-72
2023/03/10 01:22:15;;;;;;;;;;;;;;;19.31;64.56;98659.27;2238679;79;51579;-73
2023/03/10 01:25:17;;;;;;;;;;;;;;;19.32;64.63;98654.22;2208854;79;50297;-71
2023/03/10 01:28:19;;;;;;;;;;;;;;;19.31;64.67;98634.33;2268053;78;50284;-74
2023/03/10 01:31:20;;;;;;;;;;;;;;;19.33;64.70;98621.50;2209407;78;51966;-72
2023/03/10 01:34:22;;;;;;;;;;;;;;;19.35;64.58;98621.55;2244655;78;51436;-72
2023/03/10 01:37:24;;;;;;;;;;;;;;;19.36;64.52;98616.47;2272458;78;51473;-73
2023/03/10 01:40:25;;;;;;;;;;;;;;;19.36;64.53;98601.72;2272299;78;51521;-72
2023/03/10 01:43:33;;;;;;;;;;;;;;;19.38;64.41;98598.81;2242988;78;50983;-73
2023/03/10 01:46:36;;;;;;;;;;;;;;;19.40;64.33;98598.05;2248636;78;50202;-72
2023/03/10 01:49:42;;;;;;;;;;;;;;;19.43;64.26;98590.05;2260613;78;51578;-72
2023/03/10 01:52:44;;;;;;;;;;;;;;;19.45;64.21;98578.57;2260844;78;50774;-72
2023/03/10 01:55:47;;;;;;;;;;;;;;;19.47;64.10;98563.87;2239894;78;51151;-73
2023/03/10 01:58:49;;;;;;;;;;;;;;;19.47;64.03;98557.16;2260681;78;50308;-74
2023/03/10 02:01:51;;;;;;;;;;;;;;;19.44;64.01;98552.78;2272916;77;49950;-73
2023/03/10 02:04:52;;;;;;;;;;;;;;;19.41;64.09;98549.25;2276731;78;51501;-75
2023/03/10 02:07:54;;;;;;;;;;;;;;;19.37;64.15;98551.61;2247808;78;49554;-73
2023/03/10 02:10:56;;;;;;;;;;;;;;;19.34;64.20;98542.17;2278642;78;51303;-74
2023/03/10 02:13:57;;;;;;;;;;;;;;;19.30;64.43;98531.63;2278462;78;51509;-75
2023/03/10 02:16:59;;;;;;;;;;;;;;;19.27;64.53;98520.58;2241053;78;51385;-75
2023/03/10 02:20:15;;;;;;;;;;;;;;;19.25;64.59;98484.61;2246796;78;49531;-75
2023/03/10 02:23:18;;;;;;;;;;;;;;;19.26;64.51;98506.33;2277716;77;50633;-74
2023/03/10 02:26:38;;;;;;;;;;;;;;;19.28;64.47;98484.65;2287158;77;50637;-74
2023/03/10 02:29:47;;;;;;;;;;;;;;;19.28;64.37;98487.33;2283945;78;50385;-74
2023/03/10 02:32:50;;;;;;;;;;;;;;;19.31;64.37;98505.61;2264465;77;51272;-74
2023/03/10 02:35:52;;;;;;;;;;;;;;;19.34;64.23;98446.98;2299307;77;51503;-73
2023/03/10 02:38:53;;;;;;;;;;;;;;;19.36;64.21;98464.14;2298998;77;51959;-75
2023/03/10 02:41:55;;;;;;;;;;;;;;;19.38;64.14;98459.89;2299038;77;51429;-74
2023/03/10 02:44:56;;;;;;;;;;;;;;;19.40;64.11;98451.09;2265259;77;52291;-73
2023/03/10 02:47:58;;;;;;;;;;;;;;;19.42;64.03;98446.27;2282498;77;50684;-73
2023/03/10 02:51:00;;;;;;;;;;;;;;;19.43;63.94;98425.92;2263264;78;51432;-73
2023/03/10 02:54:01;;;;;;;;;;;;;;;19.46;63.84;98428.66;2280203;78;50328;-73
2023/03/10 02:57:03;;;;;;;;;;;;;;;19.49;63.78;98434.86;2260982;78;52344;-73
2023/03/10 03:00:07;;;;;;;;;;;;;;;19.52;63.71;98424.98;2253868;78;51500;-73
2023/03/10 03:03:08;;;;;;;;;;;;;;;19.53;63.63;98413.22;2253941;78;24497;-73
2023/03/10 03:06:10;;;;;;;;;;;;;;;19.50;63.60;98409.69;2265974;78;50373;-73
2023/03/10 03:09:11;;;;;;;;;;;;;;;19.44;63.71;98404.74;2226345;78;52254;-73
2023/03/10 03:12:13;;;;;;;;;;;;;;;19.42;63.77;98397.49;2252445;78;50749;-73
2023/03/10 03:15:15;;;;;;;;;;;;;;;19.36;63.90;98387.19;2239523;78;49927;-73
2023/03/10 03:18:16;;;;;;;;;;;;;;;19.33;64.01;98382.31;2251212;78;51384;-73
2023/03/10 03:21:18;;;;;;;;;;;;;;;19.30;64.20;98386.83;2246897;78;51583;-73
2023/03/10 03:24:22;;;;;;;;;;;;;;;19.31;64.30;98379.59;2293825;77;49873;-74
2023/03/10 03:27:24;;;;;;;;;;;;;;;19.31;64.24;98370.20;2276168;77;50366;-73
2023/03/10 03:30:26;;;;;;;;;;;;;;;19.30;64.24;98351.97;2288450;77;50233;-73
2023/03/10 03:33:27;;;;;;;;;;;;;;;19.33;64.27;98345.31;2242809;79;51131;-73
2023/03/10 03:36:29;;;;;;;;;;;;;;;19.34;64.27;98350.94;2269211;77;50213;-72
2023/03/10 03:39:31;;;;;;;;;;;;;;;19.36;64.19;98352.86;2275757;77;51407;-72
2023/03/10 03:42:32;;;;;;;;;;;;;;;19.37;64.19;98355.84;2223238;77;50526;-72
2023/03/10 03:45:34;;;;;;;;;;;;;;;19.39;64.20;98357.73;2265056;77;51107;-73
2023/03/10 03:48:37;;;;;;;;;;;;;;;19.42;64.10;98338.49;2274195;76;49874;-72
2023/03/10 03:51:38;;;;;;;;;;;;;;;19.44;64.16;98332.33;2264156;77;52459;-73
2023/03/10 03:54:40;;;;;;;;;;;;;;;19.47;64.14;98322.98;2227836;77;50607;-72
2023/03/10 03:57:43;;;;;;;;;;;;;;;19.50;64.05;98305.08;2233873;77;51196;-73
2023/03/10 04:00:45;;;;;;;;;;;;;;;19.51;63.90;98293.28;2229647;77;50459;-72
2023/03/10 04:03:47;;;;;;;;;;;;;;;19.47;63.89;98277.39;2264142;77;50186;-72
2023/03/10 04:06:48;;;;;;;;;;;;;;;19.44;63.93;98280.03;2263854;77;50252;-73
2023/03/10 04:09:50;;;;;;;;;;;;;;;19.43;63.92;98266.89;2247175;78;49924;-72
2023/03/10 04:12:51;;;;;;;;;;;;;;;19.39;63.95;98273.26;2270870;77;50194;-74
2023/03/10 04:15:57;;;;;;;;;;;;;;;19.35;64.00;98263.56;2230123;77;50426;-73
2023/03/10 04:19:00;;;;;;;;;;;;;;;19.30;64.19;98257.32;2276451;77;51589;-74
2023/03/10 04:22:02;;;;;;;;;;;;;;;19.29;64.25;98265.06;2228494;77;52552;-73
2023/03/10 04:25:04;;;;;;;;;;;;;;;19.30;64.25;98255.98;2269136;77;51480;-74
2023/03/10 04:28:06;;;;;;;;;;;;;;;19.31;64.26;98260.27;2268653;78;51497;-73
2023/03/10 04:31:12;;;;;;;;;;;;;;;19.33;64.19;98264.33;2273393;78;49956;-73
2023/03/10 04:34:14;;;;;;;;;;;;;;;19.34;64.18;98261.11;2240822;78;51315;-73
2023/03/10 04:37:15;;;;;;;;;;;;;;;19.37;64.31;98266.02;2255162;78;50411;-74
2023/03/10 04:40:17;;;;;;;;;;;;;;;19.38;64.24;98249.39;2279587;77;50355;-74
2023/03/10 04:43:18;;;;;;;;;;;;;;;19.41;64.11;98250.23;2265539;77;51417;-73
2023/03/10 04:46:20;;;;;;;;;;;;;;;19.45;64.07;98248.16;2257382;78;49475;-72
2023/03/10 04:49:22;;;;;;;;;;;;;;;19.46;63.98;98244.40;2251457;78;49982;-73
2023/03/10 04:52:23;;;;;;;;;;;;;;;19.49;63.93;98239.87;2278566;77;50221;-73
2023/03/10 04:55:25;;;;;;;;;;;;;;;19.56;63.89;98238.37;2262957;78;50718;-74
2023/03/10 04:58:26;;;;;;;;;;;;;;;19.57;63.85;98230.59;2223191;78;51119;-76
2023/03/10 05:01:33;;;;;;;;;;;;;;;19.47;58.53;98219.22;2247092;78;50610;-74
2023/03/10 05:04:31;;;;;;;;;;;;;;;19.28;55.84;98215.19;2268811;78;22779;-72
2023/03/10 05:07:33;;;;;;;;;;;;;;;19.13;58.38;98216.58;2270690;78;50653;-73
2023/03/10 05:10:34;;;;;;;;;;;;;;;19.05;59.70;98206.28;2257259;78;52406;-73
2023/03/10 05:13:36;;;;;;;;;;;;;;;19.02;60.34;98196.06;2249418;78;51392;-72
2023/03/10 05:16:37;;;;;;;;;;;;;;;18.96;60.96;98201.58;2234179;78;51373;-72
2023/03/10 05:19:39;;;;;;;;;;;;;;;18.88;61.41;98194.25;2255323;78;51514;-73
2023/03/10 05:22:41;;;;;;;;;;;;;;;18.84;61.81;98192.30;2273207;77;52321;-72
2023/03/10 05:25:42;;;;;;;;;;;;;;;18.83;62.06;98190.16;2256391;77;51464;-72
2023/03/10 05:28:44;;;;;;;;;;;;;;;18.81;62.31;98178.87;2278555;77;51399;-72
2023/03/10 05:31:46;;;;;;;;;;;;;;;18.81;62.54;98170.83;2295552;77;51509;-78
2023/03/10 05:34:47;;;;;;;;;;;;;;;18.83;62.69;98160.69;2264437;77;52569;-73
2023/03/10 05:37:49;;;;;;;;;;;;;;;18.84;62.82;98166.31;2242399;77;53913;-79
2023/03/10 05:40:50;;;;;;;;;;;;;;;18.89;62.92;98168.27;2301149;76;50587;-73
2023/03/10 05:43:52;;;;;;;;;;;;;;;18.87;62.94;98161.80;2258259;78;51388;-75
2023/03/10 05:46:54;;;;;;;;;;;;;;;18.91;62.99;98162.95;2253509;77;52339;-75
2023/03/10 05:49:55;;;;;;;;;;;;;;;18.90;63.09;98157.82;2251883;77;50580;-75
2023/03/10 05:52:57;;;;;;;;;;;;;;;18.92;63.10;98148.48;2254827;77;51387;-75
2023/03/10 05:55:58;;;;;;;;;;;;;;;18.96;63.13;98151.50;2297258;77;51871;-73
2023/03/10 05:59:00;;;;;;;;;;;;;;;18.99;63.10;98139.47;2266690;77;51328;-73
2023/03/10 06:02:02;;;;;;;;;;;;;;;19.01;63.09;98138.17;2293861;77;51501;-72
2023/03/10 06:05:03;;;;;;;;;;;;;;;19.00;63.04;98136.53;2250727;77;53594;-73
2023/03/10 06:08:05;;;;;;;;;;;;;;;18.99;63.23;98130.09;2259394;77;51635;-72
2023/03/10 06:11:06;;;;;;;;;;;;;;;18.99;63.38;98136.26;2256932;77;51127;-72
2023/03/10 06:14:09;;;;;;;;;;;;;;;18.98;63.43;98127.11;2239189;77;50051;-72
2023/03/10 06:17:10;;;;;;;;;;;;;;;18.94;63.59;98141.55;2275995;77;50725;-73
2023/03/10 06:20:12;;;;;;;;;;;;;;;18.91;63.64;98136.69;2276967;77;51402;-73
2023/03/10 06:23:14;;;;;;;;;;;;;;;18.89;63.68;98140.94;2231544;77;52139;-74
2023/03/10 06:26:16;;;;;;;;;;;;;;;18.85;63.91;98134.44;2292606;77;50247;-73
2023/03/10 06:29:17;;;;;;;;;;;;;;;18.88;63.72;98136.65;2287957;77;52083;-71
2023/03/10 06:32:19;;;;;;;;;;;;;;;18.89;63.68;98135.58;2270604;77;49533;-71
2023/03/10 06:35:21;;;;;;;;;;;;;;;18.95;64.01;98135.65;2257515;77;52641;-73
2023/03/10 06:38:22;;;;;;;;;;;;;;;18.96;64.12;98127.88;2290363;77;51518;-74
2023/03/10 06:41:24;;;;;;;;;;;;;;;18.99;64.30;98120.72;2285116;78;51309;-72
2023/03/10 06:44:25;;;;;;;;;;;;;;;19.01;64.40;98129.30;2295827;77;50248;-73
2023/03/10 06:47:27;;;;;;;;;;;;;;;19.03;64.42;98133.88;2237379;78;51498;-74
2023/03/10 06:50:29;;;;;;;;;;;;;;;19.03;64.49;98131.20;2303745;76;50369;-76
2023/03/10 06:53:30;;;;;;;;;;;;;;;19.02;64.39;98122.36;2271743;77;50365;-76
2023/03/10 06:56:32;;;;;;;;;;;;;;;19.05;64.41;98122.39;2261449;77;50222;-75
2023/03/10 06:59:33;;;;;;;;;;;;;;;19.07;64.61;98121.09;2233733;77;51720;-76
2023/03/10 07:02:35;;;;;;;;;;;;;;;19.06;64.62;98119.48;2292246;77;50592;-77
2023/03/10 07:05:37;;;;;;;;;;;;;;;19.05;64.59;98113.02;2251207;77;50395;-77
2023/03/10 07:08:38;;;;;;;;;;;;;;;19.06;64.49;98115.97;2262870;77;50117;-77
2023/03/10 07:11:40;;;;;;;;;;;;;;;19.03;64.66;98108.42;2251563;77;51158;-77
2023/03/10 07:14:41;;;;;;;;;;;;;;;19.03;64.61;98110.57;2250188;77;50219;-77
2023/03/10 07:17:43;;;;;;;;;;;;;;;19.03;64.47;98108.42;2298694;77;50290;-77
2023/03/10 07:20:45;;;;;;;;;;;;;;;18.98;64.53;98109.70;2264045;77;50022;-77
2023/03/10 07:23:46;;;;;;;;;;;;;;;18.95;64.54;98106.17;2291805;77;49903;-75
2023/03/10 07:26:48;;;;;;;;;;;;;;;18.93;64.49;98107.25;2263099;78;50259;-76
2023/03/10 07:29:49;;;;;;;;;;;;;;;18.95;64.40;98104.30;2246900;78;50590;-77
2023/03/10 07:32:55;;;;;;;;;;;;;;;18.97;64.29;98108.09;2246165;78;50618;-77
2023/03/10 07:35:54;;;;;;;;;;;;;;;18.98;64.25;98111.84;2268390;78;21767;-76
2023/03/10 07:38:56;;;;;;;;;;;;;;;18.99;64.20;98112.14;2228783;78;50805;-77
2023/03/10 07:41:58;;;;;;;;;;;;;;;19.04;64.04;98108.72;2230942;78;53389;-77
2023/03/10 07:45:00;;;;;;;;;;;;;;;19.06;63.89;98111.44;2261515;78;50295;-77
2023/03/10 07:48:02;;;;;;;;;;;;;;;19.08;63.79;98105.28;2245074;78;51806;-76
2023/03/10 07:51:03;;;;;;;;;;;;;;;19.09;63.78;98110.13;2279824;78;50695;-77
2023/03/10 07:54:05;;;;;;;;;;;;;;;19.07;63.72;98110.91;2279444;78;50647;-77
2023/03/10 07:57:06;;;;;;;;;;;;;;;19.06;63.66;98106.08;2282010;78;50683;-77
2023/03/10 08:00:10;;;;;;;;;;;;;;;19.06;63.63;98106.58;2275948;78;50760;-77
2023/03/10 08:03:12;;;;;;;;;;;;;;;19.04;63.55;98104.70;2288741;77;51345;-77
2023/03/10 08:06:20;;;;;;;;;;;;;;;19.03;63.58;98100.38;2270586;77;50431;-77
2023/03/10 08:09:21;;;;;;;;;;;;;;;19.01;63.58;98102.49;2270361;78;51546;-77
2023/03/10 08:12:23;;;;;;;;;;;;;;;19.00;63.59;98099.55;2220346;78;51667;-77
2023/03/10 08:15:25;;;;;;;;;;;;;;;18.99;63.61;98102.77;2226745;78;51365;-77
2023/03/10 08:18:28;;;;;;;;;;;;;;;18.98;63.58;98097.10;2281033;77;51441;-77
2023/03/10 08:21:29;;;;;;;;;;;;;;;18.99;63.57;98091.23;2263361;78;51701;-77
2023/03/10 08:24:31;;;;;;;;;;;;;;;19.01;63.48;98091.27;2270401;77;51321;-77
2023/03/10 08:27:33;;;;;;;;;;;;;;;19.03;63.41;98098.51;2250036;78;52576;-78
2023/03/10 08:30:34;;;;;;;;;;;;;;;19.02;63.46;98104.94;2279372;77;51488;-77
2023/03/10 08:33:36;;;;;;;;;;;;;;;19.05;63.39;98100.95;2285684;78;50224;-77
2023/03/10 08:36:37;;;;;;;;;;;;;;;19.06;63.32;98105.24;2250779;78;50726;-77
2023/03/10 08:39:39;;;;;;;;;;;;;;;19.08;63.27;98109.83;2215827;79;49509;-77
2023/03/10 08:42:40;;;;;;;;;;;;;;;19.11;63.19;98103.97;2278597;78;50699;-77
2023/03/10 08:45:42;;;;;;;;;;;;;;;19.15;63.08;98111.81;2248367;79;50590;-77
2023/03/10 08:48:44;;;;;;;;;;;;;;;19.15;63.01;98102.42;2226170;79;50108;-77
2023/03/10 08:51:45;;;;;;;;;;;;;;;19.15;62.96;98109.13;2241584;78;51127;-78
2023/03/10 08:54:47;;;;;;;;;;;;;;;19.12;63.04;98106.95;2273499;78;50576;-77
2023/03/10 08:57:48;;;;;;;;;;;;;;;19.15;63.10;98115.83;2282453;78;51408;-77
2023/03/10 09:00:51;;;;;;;;;;;;;;;19.10;63.14;98109.06;2263106;78;51580;-77
2023/03/10 09:03:52;;;;;;;;;;;;;;;19.07;63.15;98108.22;2289447;77;52459;-77
2023/03/10 09:06:54;;;;;;;;;;;;;;;19.05;63.22;98107.12;2245232;79;50640;-77
2023/03/10 09:09:55;;;;;;;;;;;;;;;19.08;63.16;98116.53;2253690;78;50284;-76
2023/03/10 09:12:57;;;;;;;;;;;;;;;19.12;63.08;98108.29;2285185;78;50206;-76
2023/03/10 09:15:58;;;;;;;;;;;;;;;19.11;63.10;98113.35;2253671;78;51068;-77
2023/03/10 09:19:00;;;;;;;;;;;;;;;19.13;63.03;98109.90;2248328;78;50594;-77
2023/03/10 09:22:02;;;;;;;;;;;;;;;19.13;63.01;98120.09;2272212;78;50301;-76
2023/03/10 09:25:04;;;;;;;;;;;;;;;19.04;58.85;98132.31;2276417;77;51465;-76
2023/03/10 09:28:06;;;;;;;;;;;;;;;18.82;59.50;98141.63;2222355;78;51753;-76
2023/03/10 09:31:08;;;;;;;;;;;;;;;18.71;58.62;98139.30;2260979;78;51548;-75
2023/03/10 09:34:11;;;;;;;;;;;;;;;18.56;58.17;98146.30;2261344;78;50693;-76
2023/03/10 09:37:12;;;;;;;;;;;;;;;18.50;58.93;98148.09;2241052;79;51536;-75
2023/03/10 09:40:17;;;;;;;;;;;;;;;18.59;57.31;98148.48;2218357;78;52416;-75
2023/03/10 09:43:19;;;;;;;;;;;;;;;18.71;57.84;98147.34;2274737;78;50442;-74
2023/03/10 09:46:22;;;;;;;;;;;;;;;18.91;58.13;98138.83;2263760;78;51461;-74
2023/03/10 09:49:31;;;;;;;;;;;;;;;19.08;58.52;98135.30;2241461;78;51489;-74
2023/03/10 09:52:37;;;;;;;;;;;;;;;19.21;58.46;98140.29;2256154;78;51539;-74
2023/03/10 09:55:39;;;;;;;;;;;;;;;19.27;58.69;98145.22;2278242;78;50652;-77
2023/03/10 09:58:42;;;;;;;;;;;;;;;19.31;58.82;98140.95;2265837;78;51521;-74
2023/03/10 10:01:44;;;;;;;;;;;;;;;19.35;59.05;98151.48;2275024;78;50281;-76
2023/03/10 10:04:47;;;;;;;;;;;;;;;19.35;59.17;98152.28;2221869;79;50975;-76
2023/03/10 10:07:50;;;;;;;;;;;;;;;19.40;59.53;98152.08;2279505;76;50807;-75
2023/03/10 10:10:55;;;;;;;;;;;;;;;19.40;59.68;98149.40;2261801;77;51478;-75
2023/03/10 10:14:01;;;;;;;;;;;;;;;19.36;59.89;98143.17;2274909;77;50329;-74
2023/03/10 10:17:04;;;;;;;;;;;;;;;19.35;60.01;98148.27;2256682;77;52327;-77
2023/03/10 10:20:08;;;;;;;;;;;;;;;19.33;60.15;98155.73;2270869;77;51541;-76
2023/03/10 10:23:23;;;;;;;;;;;;;;;19.31;60.35;98151.15;2257146;77;51428;-76
2023/03/10 10:26:25;;;;;;;;;;;;;;;19.31;60.41;98156.51;2277555;76;50347;-76
2023/03/10 10:29:35;;;;;;;;;;;;;;;19.31;60.52;98153.83;2261944;77;52349;-76
2023/03/10 10:32:40;;;;;;;;;;;;;;;19.34;60.52;98160.06;2267976;77;50293;-74
2023/03/10 10:35:43;;;;;;;;;;;;;;;19.35;60.62;98161.67;2263217;78;50618;-75
2023/03/10 10:38:49;;;;;;;;;;;;;;;19.40;60.64;98170.85;2261986;77;51453;-75
2023/03/10 10:41:50;;;;;;;;;;;;;;;19.42;60.65;98181.61;2236926;77;51682;-75
2023/03/10 10:44:53;;;;;;;;;;;;;;;19.45;60.65;98181.64;2265140;77;51364;-76
2023/03/10 10:47:54;;;;;;;;;;;;;;;19.48;60.67;98185.16;2264767;78;50247;-75
2023/03/10 10:50:56;;;;;;;;;;;;;;;19.51;60.60;98184.66;2235375;78;51493;-76
2023/03/10 10:53:59;;;;;;;;;;;;;;;19.57;60.54;98186.33;2245838;78;51100;-76
2023/03/10 10:57:01;;;;;;;;;;;;;;;19.61;60.44;98192.84;2263166;78;51562;-76
2023/03/10 11:00:21;;;;;;;;;;;;;;;19.63;60.42;98192.06;2266449;78;50672;-77
2023/03/10 11:03:27;;;;;;;;;;;;;;;19.67;60.31;98191.05;2267177;78;51459;-78
2023/03/10 11:06:31;;;;;;;;;;;;;;;19.68;60.27;98196.69;2269735;77;51459;-77
2023/03/10 11:09:32;;;;;;;;;;;;;;;19.67;60.21;98193.73;2227319;79;51598;-76
2023/03/10 11:12:35;;;;;;;;;;;;;;;19.63;60.15;98193.94;2242259;78;50215;-76
2023/03/10 11:15:41;;;;;;;;;;;;;;;19.62;60.11;98190.42;2256546;78;51445;-76
2023/03/10 11:18:44;;;;;;;;;;;;;;;19.54;60.16;98188.98;2293149;77;51228;-77
2023/03/10 11:21:47;;;;;;;;;;;;;;;19.50;60.19;98185.73;2253660;78;49902;-76
2023/03/10 11:24:53;;;;;;;;;;;;;;;19.48;60.29;98187.84;2249725;79;50718;-77
2023/03/10 11:27:56;;;;;;;;;;;;;;;19.48;60.29;98185.97;2263751;78;51398;-76
2023/03/10 11:31:15;;;;;;;;;;;;;;;19.50;60.24;98192.44;2260950;78;51456;-76
2023/03/10 11:34:24;;;;;;;;;;;;;;;19.53;60.18;98193.27;2252510;78;50235;-76
2023/03/10 11:37:23;;;;;;;;;;;;;;;19.55;60.06;98195.19;2262550;76;22354;-77
2023/03/10 11:40:27;;;;;;;;;;;;;;;19.58;60.00;98190.66;2264443;78;51449;-76
2023/03/10 11:43:30;;;;;;;;;;;;;;;19.59;59.95;98194.41;2327862;76;51405;-76
2023/03/10 11:46:39;;;;;;;;;;;;;;;19.61;59.82;98194.17;2283634;76;50423;-75
2023/03/10 11:49:44;;;;;;;;;;;;;;;19.64;59.76;98190.19;2264676;77;51541;-76
2023/03/10 11:52:44;;;;;;;;;;;;;;;19.67;59.74;98197.22;2256027;78;22172;-75
2023/03/10 11:55:46;;;;;;;;;;;;;;;19.71;59.69;98196.20;2290215;76;52521;-75
2023/03/10 11:58:55;;;;;;;;;;;;;;;19.72;59.70;98198.62;2263724;77;51467;-77
2023/03/10 12:02:01;;;;;;;;;;;;;;;19.72;59.70;98200.50;2290507;77;50675;-77
2023/03/10 12:05:05;;;;;;;;;;;;;;;19.70;59.77;98193.23;2283859;77;50662;-77
2023/03/10 12:08:07;;;;;;;;;;;;;;;19.67;59.81;98197.22;2249977;77;52536;-77
2023/03/10 12:11:10;;;;;;;;;;;;;;;19.64;59.91;98199.03;2280819;77;51458;-75
2023/03/10 12:14:12;;;;;;;;;;;;;;;19.59;59.99;98194.95;2289903;77;50644;-77
2023/03/10 12:17:14;;;;;;;;;;;;;;;19.59;60.06;98198.97;2279199;77;50659;-77
2023/03/10 12:20:17;;;;;;;;;;;;;;;19.57;60.13;98196.55;2240531;77;51659;-77
2023/03/10 12:23:23;;;;;;;;;;;;;;;19.58;60.16;98192.80;2288056;77;51499;-76
2023/03/10 12:26:39;;;;;;;;;;;;;;;19.60;60.13;98193.91;2289977;77;50281;-77
2023/03/10 12:29:41;;;;;;;;;;;;;;;19.62;60.06;98197.13;2251429;79;50643;-77
2023/03/10 12:32:45;;;;;;;;;;;;;;;19.65;60.00;98192.63;2253101;77;51122;-76
2023/03/10 12:35:47;;;;;;;;;;;;;;;19.69;59.89;98190.27;2289286;77;50487;-76
2023/03/10 12:38:59;;;;;;;;;;;;;;;19.72;59.82;98194.60;2286520;77;50722;-76
2023/03/10 12:42:01;;;;;;;;;;;;;;;19.74;59.90;98200.53;2265626;78;50730;-77
2023/03/10 12:45:10;;;;;;;;;;;;;;;19.78;59.89;98196.80;2268639;77;50319;-76
2023/03/10 12:48:13;;;;;;;;;;;;;;;19.80;59.85;98194.16;2285129;77;49983;-76
2023/03/10 12:51:15;;;;;;;;;;;;;;;19.80;59.94;98202.20;2278865;77;52351;-76
2023/03/10 12:54:24;;;;;;;;;;;;;;;19.78;60.02;98192.78;2257107;77;50695;-76
2023/03/10 12:57:30;;;;;;;;;;;;;;;19.75;60.14;98199.45;2246017;77;51238;-76
2023/03/10 13:00:46;;;;;;;;;;;;;;;19.73;60.21;98192.22;2276331;77;50717;-75
2023/03/10 13:03:51;;;;;;;;;;;;;;;19.72;60.25;98189.77;2293151;77;50628;-78
2023/03/10 13:06:55;;;;;;;;;;;;;;;19.73;60.33;98188.70;2285682;77;50297;-77
2023/03/10 13:09:57;;;;;;;;;;;;;;;19.73;60.38;98193.55;2242323;77;51157;-77
2023/03/10 13:13:00;;;;;;;;;;;;;;;19.76;60.39;98186.87;2303660;77;51435;-77
2023/03/10 13:16:03;;;;;;;;;;;;;;;19.77;60.40;98185.80;2302395;77;50616;-75
2023/03/10 13:19:04;;;;;;;;;;;;;;;19.79;60.34;98181.81;2289757;77;51555;-78
2023/03/10 13:22:06;;;;;;;;;;;;;;;19.86;60.33;98190.19;2273126;77;52488;-77
2023/03/10 13:25:09;;;;;;;;;;;;;;;19.90;60.25;98184.61;2257987;77;50664;-77
2023/03/10 13:28:13;;;;;;;;;;;;;;;19.89;60.24;98177.63;2292710;77;49878;-77
2023/03/10 13:31:17;;;;;;;;;;;;;;;19.89;60.26;98188.37;2269579;77;50255;-77
2023/03/10 13:34:19;;;;;;;;;;;;;;;19.86;60.31;98193.70;2265399;77;50990;-76
2023/03/10 13:37:21;;;;;;;;;;;;;;;19.84;60.32;98190.99;2261971;78;50317;-77
2023/03/10 13:40:22;;;;;;;;;;;;;;;19.79;60.45;98179.13;2287144;78;50239;-77
2023/03/10 13:43:28;;;;;;;;;;;;;;;19.75;60.48;98186.58;2274721;77;50587;-76
2023/03/10 13:46:31;;;;;;;;;;;;;;;19.75;60.56;98189.27;2249636;79;50299;-77
2023/03/10 13:49:33;;;;;;;;;;;;;;;19.77;60.60;98186.61;2250149;77;52318;-78
2023/03/10 13:52:35;;;;;;;;;;;;;;;19.79;60.60;98191.20;2277743;78;50318;-77
2023/03/10 13:55:39;;;;;;;;;;;;;;;19.80;60.54;98190.66;2266904;78;50680;-77
2023/03/10 13:58:41;;;;;;;;;;;;;;;19.81;60.54;98189.63;2243306;78;50968;-77
2023/03/10 14:01:49;;;;;;;;;;;;;;;19.84;60.42;98193.67;2267056;78;51458;-77
2023/03/10 14:04:51;;;;;;;;;;;;;;;19.84;60.33;98189.11;2266938;78;50213;-77
2023/03/10 14:07:59;;;;;;;;;;;;;;;19.87;60.19;98193.17;2266764;78;51443;-77
2023/03/10 14:11:19;;;;;;;;;;;;;;;19.89;60.10;98187.83;2243560;78;51691;-77
2023/03/10 14:14:26;;;;;;;;;;;;;;;19.92;60.04;98175.78;2267048;78;51459;-76
2023/03/10 14:17:29;;;;;;;;;;;;;;;19.92;59.97;98181.15;2220142;78;51173;-77
2023/03/10 14:20:31;;;;;;;;;;;;;;;19.88;60.03;98183.50;2286390;78;51356;-78
2023/03/10 14:23:35;;;;;;;;;;;;;;;19.83;60.15;98174.59;2261192;78;51700;-78
2023/03/10 14:26:37;;;;;;;;;;;;;;;19.78;60.59;98169.47;2287381;78;51366;-76
2023/03/10 14:29:45;;;;;;;;;;;;;;;19.84;60.26;98171.67;2285287;77;50693;-75
2023/03/10 14:32:46;;;;;;;;;;;;;;;19.87;60.13;98169.82;2281711;77;21703;-76
2023/03/10 14:35:51;;;;;;;;;;;;;;;19.95;59.94;98157.83;2257709;78;51014;-76
2023/03/10 14:38:52;;;;;;;;;;;;;;;19.99;59.80;98161.64;2259254;78;50368;-78
2023/03/10 14:41:54;;;;;;;;;;;;;;;20.04;59.63;98159.00;2290206;78;50196;-76
2023/03/10 14:44:55;;;;;;;;;;;;;;;20.12;59.43;98154.52;2287964;77;50560;-75
2023/03/10 14:47:57;;;;;;;;;;;;;;;20.21;59.18;98157.00;2257522;78;52593;-76
2023/03/10 14:50:59;;;;;;;;;;;;;;;20.26;59.05;98154.09;2288085;78;50264;-77
2023/03/10 14:54:00;;;;;;;;;;;;;;;20.30;58.82;98160.05;2265174;78;50723;-76
2023/03/10 14:57:02;;;;;;;;;;;;;;;20.33;58.69;98168.13;2288109;78;50581;-75
2023/03/10 15:00:05;;;;;;;;;;;;;;;20.28;59.07;98164.86;2262979;77;52287;-73
2023/03/10 15:03:08;;;;;;;;;;;;;;;20.16;59.42;98170.38;2287878;78;51496;-75
2023/03/10 15:06:12;;;;;;;;;;;;;;;20.10;59.55;98179.45;2288269;77;50405;-76
2023/03/10 15:09:13;;;;;;;;;;;;;;;20.02;59.69;98177.23;2253259;77;50615;-75
2023/03/10 15:12:16;;;;;;;;;;;;;;;19.97;59.72;98179.86;2251422;77;51055;-75
2023/03/10 15:15:22;;;;;;;;;;;;;;;19.92;59.76;98181.15;2264484;77;50278;-74
2023/03/10 15:18:25;;;;;;;;;;;;;;;19.89;59.81;98180.31;2283725;77;50713;-75
2023/03/10 15:21:27;;;;;;;;;;;;;;;19.87;59.87;98176.53;2280979;78;50765;-74
2023/03/10 15:24:29;;;;;;;;;;;;;;;19.96;59.71;98187.11;2221004;78;51080;-74
2023/03/10 15:27:31;;;;;;;;;;;;;;;19.96;59.65;98183.08;2260840;78;51404;-74
2023/03/10 15:30:33;;;;;;;;;;;;;;;19.95;59.72;98193.52;2250899;77;50208;-74
2023/03/10 15:33:35;;;;;;;;;;;;;;;19.96;59.70;98191.64;2278101;77;51468;-73
2023/03/10 15:36:36;;;;;;;;;;;;;;;20.00;59.64;98187.41;2221267;78;51624;-74
2023/03/10 15:39:38;;;;;;;;;;;;;;;20.01;59.64;98185.83;2277734;77;51287;-75
2023/03/10 15:42:41;;;;;;;;;;;;;;;20.06;59.57;98196.31;2234462;78;52233;-74
2023/03/10 15:45:45;;;;;;;;;;;;;;;20.05;59.72;98187.45;2193762;78;50084;-74
2023/03/10 15:48:46;;;;;;;;;;;;;;;20.08;59.77;98204.40;2250409;78;24875;-74
2023/03/10 15:51:48;;;;;;;;;;;;;;;20.06;58.36;98213.23;2262618;78;50287;-75